sensor_id;sensor_type;location;lat;lon;timestamp;pressure;altitude;pressure_sealevel;temperature;humidity
74065;BME280;62421;51.412;5.432;2023-07-29T00:00:41;100576.53;;;17.79;100.00
74065;BME280;62421;51.412;5.432;2023-07-29T00:03:07;100584.22;;;17.84;100.00
74065;BME280;62421;51.412;5.432;2023-07-29T00:05:33;100584.56;;;17.89;100.00
74065;BME280;62421;51.412;5.432;2023-07-29T00:07:58;100591.56;;;17.92;100.00
74065;BME280;62421;51.412;5.432;2023-07-29T00:10:24;100589.69;;;17.92;100.00
74065;BME280;62421;51.412;5.432;2023-07-29T00:12:49;100587.13;;;17.91;100.00
74065;BME280;62421;51.412;5.432;2023-07-29T00:15:14;100594.94;;;17.94;100.00
74065;BME280;62421;51.412;5.432;2023-07-29T00:17:40;100592.91;;;17.96;100.00
74065;BME280;62421;51.412;5.432;2023-07-29T00:20:06;100591.38;;;17.93;100.00
74065;BME280;62421;51.412;5.432;2023-07-29T00:22:32;100588.53;;;17.95;100.00
74065;BME280;62421;51.412;5.432;2023-07-29T00:24:57;100578.84;;;17.92;100.00
74065;BME280;62421;51.412;5.432;2023-07-29T00:27:24;100579.84;;;17.91;100.00
74065;BME280;62421;51.412;5.432;2023-07-29T00:29:50;100587.28;;;17.89;100.00
74065;BME280;62421;51.412;5.432;2023-07-29T00:32:15;100582.03;;;17.88;100.00
74065;BME280;62421;51.412;5.432;2023-07-29T00:34:40;100575.22;;;17.84;100.00
74065;BME280;62421;51.412;5.432;2023-07-29T00:37:06;100564.97;;;17.77;100.00
74065;BME280;62421;51.412;5.432;2023-07-29T00:39:32;100560.34;;;17.70;100.00
74065;BME280;62421;51.412;5.432;2023-07-29T00:41:58;100557.56;;;17.61;100.00
74065;BME280;62421;51.412;5.432;2023-07-29T00:44:23;100547.19;;;17.57;100.00
74065;BME280;62421;51.412;5.432;2023-07-29T00:46:51;100555.66;;;17.54;100.00
74065;BME280;62421;51.412;5.432;2023-07-29T00:49:17;100560.56;;;17.50;100.00
74065;BME280;62421;51.412;5.432;2023-07-29T00:51:42;100550.03;;;17.47;100.00
74065;BME280;62421;51.412;5.432;2023-07-29T00:54:08;100548.31;;;17.46;100.00
74065;BME280;62421;51.412;5.432;2023-07-29T00:56:34;100550.03;;;17.47;100.00
74065;BME280;62421;51.412;5.432;2023-07-29T00:59:01;100553.59;;;17.48;100.00
74065;BME280;62421;51.412;5.432;2023-07-29T01:01:28;100554.59;;;17.47;100.00
74065;BME280;62421;51.412;5.432;2023-07-29T01:03:53;100553.72;;;17.46;100.00
74065;BME280;62421;51.412;5.432;2023-07-29T01:09:25;100558.66;;;17.43;100.00
74065;BME280;62421;51.412;5.432;2023-07-29T01:11:55;100553.22;;;17.43;100.00
74065;BME280;62421;51.412;5.432;2023-07-29T01:17:00;100560.50;;;17.42;100.00
74065;BME280;62421;51.412;5.432;2023-07-29T01:20:00;100553.72;;;17.46;100.00
74065;BME280;62421;51.412;5.432;2023-07-29T01:22:35;100565.28;;;17.48;100.00
74065;BME280;62421;51.412;5.432;2023-07-29T01:25:02;100558.69;;;17.51;100.00
74065;BME280;62421;51.412;5.432;2023-07-29T01:27:27;100562.41;;;17.50;100.00
74065;BME280;62421;51.412;5.432;2023-07-29T01:29:54;100569.72;;;17.49;100.00
74065;BME280;62421;51.412;5.432;2023-07-29T01:35:00;100571.75;;;17.47;100.00
74065;BME280;62421;51.412;5.432;2023-07-29T01:37:31;100562.91;;;17.45;100.00
74065;BME280;62421;51.412;5.432;2023-07-29T01:39:59;100571.19;;;17.44;100.00
74065;BME280;62421;51.412;5.432;2023-07-29T01:42:25;100571.69;;;17.39;100.00
74065;BME280;62421;51.412;5.432;2023-07-29T01:44:51;100573.69;;;17.37;100.00
74065;BME280;62421;51.412;5.432;2023-07-29T01:47:17;100574.72;;;17.36;100.00
74065;BME280;62421;51.412;5.432;2023-07-29T01:49:43;100574.19;;;17.32;100.00
74065;BME280;62421;51.412;5.432;2023-07-29T01:52:08;100575.66;;;17.27;100.00
74065;BME280;62421;51.412;5.432;2023-07-29T01:54:34;100572.56;;;17.22;100.00
74065;BME280;62421;51.412;5.432;2023-07-29T01:56:59;100578.47;;;17.17;100.00
74065;BME280;62421;51.412;5.432;2023-07-29T01:59:24;100586.06;;;17.13;100.00
74065;BME280;62421;51.412;5.432;2023-07-29T02:01:50;100589.09;;;17.10;100.00
74065;BME280;62421;51.412;5.432;2023-07-29T02:04:15;100578.06;;;17.12;100.00
74065;BME280;62421;51.412;5.432;2023-07-29T02:06:40;100568.09;;;17.12;100.00
74065;BME280;62421;51.412;5.432;2023-07-29T02:09:06;100576.22;;;17.12;100.00
74065;BME280;62421;51.412;5.432;2023-07-29T02:11:31;100577.06;;;17.13;100.00
74065;BME280;62421;51.412;5.432;2023-07-29T02:13:57;100579.09;;;17.11;100.00
74065;BME280;62421;51.412;5.432;2023-07-29T02:16:22;100574.97;;;17.07;100.00
74065;BME280;62421;51.412;5.432;2023-07-29T02:18:49;100560.88;;;17.03;100.00
74065;BME280;62421;51.412;5.432;2023-07-29T02:21:15;100560.63;;;16.96;100.00
74065;BME280;62421;51.412;5.432;2023-07-29T02:23:41;100561.25;;;16.90;100.00
74065;BME280;62421;51.412;5.432;2023-07-29T02:26:06;100560.03;;;16.85;100.00
74065;BME280;62421;51.412;5.432;2023-07-29T02:28:31;100565.75;;;16.82;100.00
74065;BME280;62421;51.412;5.432;2023-07-29T02:31:13;100564.91;;;16.81;100.00
74065;BME280;62421;51.412;5.432;2023-07-29T02:33:39;100569.50;;;16.81;100.00
74065;BME280;62421;51.412;5.432;2023-07-29T02:36:04;100575.03;;;16.79;100.00
74065;BME280;62421;51.412;5.432;2023-07-29T02:38:30;100565.22;;;16.78;100.00
74065;BME280;62421;51.412;5.432;2023-07-29T02:40:55;100566.50;;;16.74;100.00
74065;BME280;62421;51.412;5.432;2023-07-29T02:43:20;100562.56;;;16.68;100.00
74065;BME280;62421;51.412;5.432;2023-07-29T02:45:46;100561.84;;;16.66;100.00
74065;BME280;62421;51.412;5.432;2023-07-29T02:48:11;100565.59;;;16.65;100.00
74065;BME280;62421;51.412;5.432;2023-07-29T02:50:37;100559.28;;;16.65;100.00
74065;BME280;62421;51.412;5.432;2023-07-29T02:53:02;100552.03;;;16.65;100.00
74065;BME280;62421;51.412;5.432;2023-07-29T02:55:28;100566.56;;;16.64;100.00
74065;BME280;62421;51.412;5.432;2023-07-29T02:57:53;100557.91;;;16.61;100.00
74065;BME280;62421;51.412;5.432;2023-07-29T03:00:19;100554.50;;;16.58;100.00
74065;BME280;62421;51.412;5.432;2023-07-29T03:02:44;100555.63;;;16.56;100.00
74065;BME280;62421;51.412;5.432;2023-07-29T03:05:09;100552.22;;;16.54;100.00
74065;BME280;62421;51.412;5.432;2023-07-29T03:07:35;100551.53;;;16.52;100.00
74065;BME280;62421;51.412;5.432;2023-07-29T03:10:00;100549.84;;;16.51;100.00
74065;BME280;62421;51.412;5.432;2023-07-29T03:12:25;100550.88;;;16.50;100.00
74065;BME280;62421;51.412;5.432;2023-07-29T03:14:51;100548.56;;;16.45;100.00
74065;BME280;62421;51.412;5.432;2023-07-29T03:17:17;100554.19;;;16.44;100.00
74065;BME280;62421;51.412;5.432;2023-07-29T03:19:42;100561.75;;;16.40;100.00
74065;BME280;62421;51.412;5.432;2023-07-29T03:22:07;100573.75;;;16.37;100.00
74065;BME280;62421;51.412;5.432;2023-07-29T03:24:33;100568.63;;;16.34;100.00
74065;BME280;62421;51.412;5.432;2023-07-29T03:26:58;100569.63;;;16.33;100.00
74065;BME280;62421;51.412;5.432;2023-07-29T03:29:23;100567.38;;;16.29;100.00
74065;BME280;62421;51.412;5.432;2023-07-29T03:31:49;100577.53;;;16.27;100.00
74065;BME280;62421;51.412;5.432;2023-07-29T03:34:14;100558.69;;;16.25;100.00
74065;BME280;62421;51.412;5.432;2023-07-29T03:36:39;100562.44;;;16.24;100.00
74065;BME280;62421;51.412;5.432;2023-07-29T03:39:05;100560.84;;;16.22;100.00
74065;BME280;62421;51.412;5.432;2023-07-29T03:41:31;100564.44;;;16.22;100.00
74065;BME280;62421;51.412;5.432;2023-07-29T03:43:56;100572.00;;;16.18;100.00
74065;BME280;62421;51.412;5.432;2023-07-29T03:46:21;100577.88;;;16.14;100.00
74065;BME280;62421;51.412;5.432;2023-07-29T03:48:47;100575.63;;;16.09;100.00
74065;BME280;62421;51.412;5.432;2023-07-29T03:51:13;100577.91;;;16.04;100.00
74065;BME280;62421;51.412;5.432;2023-07-29T03:53:38;100555.69;;;16.01;100.00
74065;BME280;62421;51.412;5.432;2023-07-29T03:56:04;100555.28;;;15.95;100.00
74065;BME280;62421;51.412;5.432;2023-07-29T03:58:29;100541.34;;;15.90;100.00
74065;BME280;62421;51.412;5.432;2023-07-29T04:00:54;100536.22;;;15.87;100.00
74065;BME280;62421;51.412;5.432;2023-07-29T04:03:20;100529.09;;;15.86;100.00
74065;BME280;62421;51.412;5.432;2023-07-29T04:05:45;100532.13;;;15.83;100.00
74065;BME280;62421;51.412;5.432;2023-07-29T04:08:10;100528.84;;;15.80;100.00
74065;BME280;62421;51.412;5.432;2023-07-29T04:10:36;100523.72;;;15.76;100.00
74065;BME280;62421;51.412;5.432;2023-07-29T04:13:02;100522.03;;;15.75;100.00
74065;BME280;62421;51.412;5.432;2023-07-29T04:15:28;100531.31;;;15.73;100.00
74065;BME280;62421;51.412;5.432;2023-07-29T04:17:54;100535.88;;;15.72;100.00
74065;BME280;62421;51.412;5.432;2023-07-29T04:20:20;100551.50;;;15.69;100.00
74065;BME280;62421;51.412;5.432;2023-07-29T04:22:45;100562.47;;;15.67;100.00
74065;BME280;62421;51.412;5.432;2023-07-29T04:25:11;100559.06;;;15.65;100.00
74065;BME280;62421;51.412;5.432;2023-07-29T04:27:37;100562.09;;;15.62;100.00
74065;BME280;62421;51.412;5.432;2023-07-29T04:30:02;100571.88;;;15.63;100.00
74065;BME280;62421;51.412;5.432;2023-07-29T04:32:28;100579.72;;;15.66;100.00
74065;BME280;62421;51.412;5.432;2023-07-29T04:34:53;100583.16;;;15.68;100.00
74065;BME280;62421;51.412;5.432;2023-07-29T04:37:18;100589.13;;;15.72;100.00
74065;BME280;62421;51.412;5.432;2023-07-29T04:39:44;100588.53;;;15.78;100.00
74065;BME280;62421;51.412;5.432;2023-07-29T04:42:09;100586.81;;;15.87;100.00
74065;BME280;62421;51.412;5.432;2023-07-29T04:44:34;100588.78;;;15.94;100.00
74065;BME280;62421;51.412;5.432;2023-07-29T04:47:00;100583.63;;;16.01;100.00
74065;BME280;62421;51.412;5.432;2023-07-29T04:49:25;100581.47;;;16.05;100.00
74065;BME280;62421;51.412;5.432;2023-07-29T04:51:51;100585.56;;;16.09;100.00
74065;BME280;62421;51.412;5.432;2023-07-29T04:54:16;100580.72;;;16.12;100.00
74065;BME280;62421;51.412;5.432;2023-07-29T04:56:41;100587.69;;;16.15;100.00
74065;BME280;62421;51.412;5.432;2023-07-29T04:59:07;100586.69;;;16.16;100.00
74065;BME280;62421;51.412;5.432;2023-07-29T05:01:33;100600.94;;;16.18;100.00
74065;BME280;62421;51.412;5.432;2023-07-29T05:03:58;100599.78;;;16.21;100.00
74065;BME280;62421;51.412;5.432;2023-07-29T05:06:24;100600.63;;;16.21;100.00
74065;BME280;62421;51.412;5.432;2023-07-29T05:08:49;100603.06;;;16.24;100.00
74065;BME280;62421;51.412;5.432;2023-07-29T05:11:14;100609.00;;;16.28;100.00
74065;BME280;62421;51.412;5.432;2023-07-29T05:13:40;100612.13;;;16.33;100.00
74065;BME280;62421;51.412;5.432;2023-07-29T05:16:05;100614.25;;;16.39;100.00
74065;BME280;62421;51.412;5.432;2023-07-29T05:18:31;100609.91;;;16.46;100.00
74065;BME280;62421;51.412;5.432;2023-07-29T05:20:56;100614.03;;;16.50;100.00
74065;BME280;62421;51.412;5.432;2023-07-29T05:23:21;100614.19;;;16.49;100.00
74065;BME280;62421;51.412;5.432;2023-07-29T05:25:47;100602.94;;;16.44;100.00
74065;BME280;62421;51.412;5.432;2023-07-29T05:28:12;100607.81;;;16.40;100.00
74065;BME280;62421;51.412;5.432;2023-07-29T05:30:37;100603.69;;;16.36;100.00
74065;BME280;62421;51.412;5.432;2023-07-29T05:33:05;100609.56;;;16.31;100.00
74065;BME280;62421;51.412;5.432;2023-07-29T05:35:32;100622.28;;;16.31;100.00
74065;BME280;62421;51.412;5.432;2023-07-29T05:37:58;100605.84;;;16.32;100.00
74065;BME280;62421;51.412;5.432;2023-07-29T05:40:23;100606.41;;;16.36;100.00
74065;BME280;62421;51.412;5.432;2023-07-29T05:42:49;100608.19;;;16.45;100.00
74065;BME280;62421;51.412;5.432;2023-07-29T05:45:14;100607.13;;;16.56;100.00
74065;BME280;62421;51.412;5.432;2023-07-29T05:47:39;100607.78;;;16.68;100.00
74065;BME280;62421;51.412;5.432;2023-07-29T05:50:05;100604.75;;;16.81;100.00
74065;BME280;62421;51.412;5.432;2023-07-29T05:52:31;100609.09;;;16.91;100.00
74065;BME280;62421;51.412;5.432;2023-07-29T05:54:57;100603.56;;;17.01;100.00
74065;BME280;62421;51.412;5.432;2023-07-29T05:57:22;100607.06;;;17.11;100.00
74065;BME280;62421;51.412;5.432;2023-07-29T05:59:48;100599.84;;;17.20;100.00
74065;BME280;62421;51.412;5.432;2023-07-29T06:02:13;100594.97;;;17.24;100.00
74065;BME280;62421;51.412;5.432;2023-07-29T06:04:38;100594.34;;;17.30;100.00
74065;BME280;62421;51.412;5.432;2023-07-29T06:07:04;100603.69;;;17.35;100.00
74065;BME280;62421;51.412;5.432;2023-07-29T06:09:30;100586.63;;;17.43;100.00
74065;BME280;62421;51.412;5.432;2023-07-29T06:11:55;100586.22;;;17.56;100.00
74065;BME280;62421;51.412;5.432;2023-07-29T06:14:20;100583.94;;;17.69;100.00
74065;BME280;62421;51.412;5.432;2023-07-29T06:16:46;100590.66;;;17.83;100.00
74065;BME280;62421;51.412;5.432;2023-07-29T06:19:12;100590.91;;;17.98;100.00
74065;BME280;62421;51.412;5.432;2023-07-29T06:21:38;100588.06;;;18.08;100.00
74065;BME280;62421;51.412;5.432;2023-07-29T06:24:04;100589.75;;;18.09;100.00
74065;BME280;62421;51.412;5.432;2023-07-29T06:26:29;100586.34;;;18.07;100.00
74065;BME280;62421;51.412;5.432;2023-07-29T06:28:54;100591.09;;;18.05;100.00
74065;BME280;62421;51.412;5.432;2023-07-29T06:31:20;100592.28;;;18.02;100.00
74065;BME280;62421;51.412;5.432;2023-07-29T06:33:45;100601.31;;;18.03;100.00
74065;BME280;62421;51.412;5.432;2023-07-29T06:36:11;100597.91;;;18.00;100.00
74065;BME280;62421;51.412;5.432;2023-07-29T06:38:37;100594.31;;;18.00;100.00
74065;BME280;62421;51.412;5.432;2023-07-29T06:41:04;100597.03;;;18.00;100.00
74065;BME280;62421;51.412;5.432;2023-07-29T06:43:29;100597.38;;;17.97;100.00
74065;BME280;62421;51.412;5.432;2023-07-29T06:45:54;100600.22;;;17.95;100.00
74065;BME280;62421;51.412;5.432;2023-07-29T06:48:20;100611.69;;;18.07;100.00
74065;BME280;62421;51.412;5.432;2023-07-29T06:50:46;100608.56;;;18.36;100.00
74065;BME280;62421;51.412;5.432;2023-07-29T06:53:11;100611.00;;;18.56;100.00
74065;BME280;62421;51.412;5.432;2023-07-29T06:55:37;100617.41;;;18.81;100.00
74065;BME280;62421;51.412;5.432;2023-07-29T06:58:02;100620.50;;;19.02;100.00
74065;BME280;62421;51.412;5.432;2023-07-29T07:00:27;100618.66;;;19.11;100.00
74065;BME280;62421;51.412;5.432;2023-07-29T07:02:53;100612.84;;;19.14;100.00
74065;BME280;62421;51.412;5.432;2023-07-29T07:05:19;100614.75;;;19.22;100.00
74065;BME280;62421;51.412;5.432;2023-07-29T07:07:44;100626.13;;;19.42;100.00
74065;BME280;62421;51.412;5.432;2023-07-29T07:10:09;100615.75;;;19.62;100.00
74065;BME280;62421;51.412;5.432;2023-07-29T07:12:35;100611.66;;;19.82;100.00
74065;BME280;62421;51.412;5.432;2023-07-29T07:15:00;100616.41;;;19.89;100.00
74065;BME280;62421;51.412;5.432;2023-07-29T07:17:26;100616.94;;;19.84;100.00
74065;BME280;62421;51.412;5.432;2023-07-29T07:19:51;100618.63;;;19.85;100.00
74065;BME280;62421;51.412;5.432;2023-07-29T07:22:17;100622.91;;;19.88;100.00
74065;BME280;62421;51.412;5.432;2023-07-29T07:24:42;100622.53;;;19.91;100.00
74065;BME280;62421;51.412;5.432;2023-07-29T07:27:07;100629.81;;;20.07;100.00
74065;BME280;62421;51.412;5.432;2023-07-29T07:29:33;100618.34;;;20.28;100.00
74065;BME280;62421;51.412;5.432;2023-07-29T07:31:58;100631.06;;;20.43;97.30
74065;BME280;62421;51.412;5.432;2023-07-29T07:34:25;100633.94;;;20.50;98.19
74065;BME280;62421;51.412;5.432;2023-07-29T07:36:50;100628.69;;;20.40;99.01
74065;BME280;62421;51.412;5.432;2023-07-29T07:39:16;100629.06;;;20.29;98.56
74065;BME280;62421;51.412;5.432;2023-07-29T07:41:41;100632.66;;;20.21;100.00
74065;BME280;62421;51.412;5.432;2023-07-29T07:44:07;100630.50;;;20.09;98.84
74065;BME280;62421;51.412;5.432;2023-07-29T07:46:33;100628.50;;;19.94;99.68
74065;BME280;62421;51.412;5.432;2023-07-29T07:48:58;100649.63;;;19.84;100.00
74065;BME280;62421;51.412;5.432;2023-07-29T07:51:24;100637.69;;;19.85;100.00
74065;BME280;62421;51.412;5.432;2023-07-29T07:53:50;100640.09;;;19.96;100.00
74065;BME280;62421;51.412;5.432;2023-07-29T07:56:15;100635.47;;;20.05;100.00
74065;BME280;62421;51.412;5.432;2023-07-29T07:58:41;100633.19;;;20.25;100.00
74065;BME280;62421;51.412;5.432;2023-07-29T08:01:08;100635.94;;;20.56;100.00
74065;BME280;62421;51.412;5.432;2023-07-29T08:03:35;100649.31;;;20.82;95.39
74065;BME280;62421;51.412;5.432;2023-07-29T08:06:01;100632.28;;;21.03;96.70
74065;BME280;62421;51.412;5.432;2023-07-29T08:08:27;100632.47;;;21.25;94.36
74065;BME280;62421;51.412;5.432;2023-07-29T08:10:53;100639.84;;;21.47;92.17
74065;BME280;62421;51.412;5.432;2023-07-29T08:13:25;100642.50;;;21.56;91.01
74065;BME280;62421;51.412;5.432;2023-07-29T08:16:00;100643.88;;;21.75;91.86
74065;BME280;62421;51.412;5.432;2023-07-29T08:18:25;100639.19;;;21.83;88.08
74065;BME280;62421;51.412;5.432;2023-07-29T08:21:11;100650.47;;;21.80;90.58
74065;BME280;62421;51.412;5.432;2023-07-29T08:23:38;100642.97;;;21.59;87.59
74065;BME280;62421;51.412;5.432;2023-07-29T08:26:05;100643.06;;;21.51;88.66
74065;BME280;62421;51.412;5.432;2023-07-29T08:28:35;100646.56;;;21.37;87.38
74065;BME280;62421;51.412;5.432;2023-07-29T08:31:01;100646.00;;;21.18;87.32
74065;BME280;62421;51.412;5.432;2023-07-29T08:33:27;100646.81;;;21.04;88.69
74065;BME280;62421;51.412;5.432;2023-07-29T08:35:53;100648.72;;;20.95;89.34
74065;BME280;62421;51.412;5.432;2023-07-29T08:38:19;100647.53;;;20.98;88.80
74065;BME280;62421;51.412;5.432;2023-07-29T08:43:15;100646.25;;;21.09;90.15
74065;BME280;62421;51.412;5.432;2023-07-29T08:45:44;100643.66;;;21.15;92.41
74065;BME280;62421;51.412;5.432;2023-07-29T08:48:10;100642.88;;;21.30;90.81
74065;BME280;62421;51.412;5.432;2023-07-29T08:50:37;100640.41;;;21.43;88.28
74065;BME280;62421;51.412;5.432;2023-07-29T08:53:05;100644.38;;;21.55;87.59
74065;BME280;62421;51.412;5.432;2023-07-29T08:55:32;100641.88;;;21.68;86.26
74065;BME280;62421;51.412;5.432;2023-07-29T08:57:59;100630.38;;;21.73;86.27
74065;BME280;62421;51.412;5.432;2023-07-29T09:00:25;100623.88;;;21.74;85.83
74065;BME280;62421;51.412;5.432;2023-07-29T09:02:51;100622.78;;;21.83;85.55
74065;BME280;62421;51.412;5.432;2023-07-29T09:05:16;100619.94;;;21.92;86.87
74065;BME280;62421;51.412;5.432;2023-07-29T09:07:42;100632.09;;;21.89;88.14
74065;BME280;62421;51.412;5.432;2023-07-29T09:10:09;100639.44;;;21.74;87.68
74065;BME280;62421;51.412;5.432;2023-07-29T09:12:38;100637.09;;;21.47;86.65
74065;BME280;62421;51.412;5.432;2023-07-29T09:15:04;100634.56;;;21.46;86.92
74065;BME280;62421;51.412;5.432;2023-07-29T09:17:32;100630.41;;;21.50;87.07
74065;BME280;62421;51.412;5.432;2023-07-29T09:19:58;100634.19;;;21.49;87.45
74065;BME280;62421;51.412;5.432;2023-07-29T09:22:23;100635.31;;;21.55;88.69
74065;BME280;62421;51.412;5.432;2023-07-29T09:24:50;100621.41;;;21.64;88.00
74065;BME280;62421;51.412;5.432;2023-07-29T09:27:29;100624.06;;;21.87;90.05
74065;BME280;62421;51.412;5.432;2023-07-29T09:29:57;100622.50;;;22.08;85.95
74065;BME280;62421;51.412;5.432;2023-07-29T09:32:24;100622.09;;;22.11;84.11
74065;BME280;62421;51.412;5.432;2023-07-29T09:34:50;100621.69;;;22.22;87.94
74065;BME280;62421;51.412;5.432;2023-07-29T09:37:25;100615.41;;;22.43;87.08
74065;BME280;62421;51.412;5.432;2023-07-29T09:39:52;100618.13;;;22.58;84.16
74065;BME280;62421;51.412;5.432;2023-07-29T09:42:19;100624.13;;;22.83;81.54
74065;BME280;62421;51.412;5.432;2023-07-29T09:44:45;100617.03;;;23.04;81.02
74065;BME280;62421;51.412;5.432;2023-07-29T09:47:21;100630.31;;;23.07;82.30
74065;BME280;62421;51.412;5.432;2023-07-29T09:49:47;100624.47;;;22.95;79.35
74065;BME280;62421;51.412;5.432;2023-07-29T09:52:17;100626.47;;;22.86;81.67
74065;BME280;62421;51.412;5.432;2023-07-29T09:54:44;100631.59;;;22.75;80.26
74065;BME280;62421;51.412;5.432;2023-07-29T09:57:19;100624.66;;;22.57;82.40
74065;BME280;62421;51.412;5.432;2023-07-29T09:59:55;100631.22;;;22.41;85.03
74065;BME280;62421;51.412;5.432;2023-07-29T10:02:20;100625.06;;;22.09;83.04
74065;BME280;62421;51.412;5.432;2023-07-29T10:04:46;100625.88;;;21.95;85.47
74065;BME280;62421;51.412;5.432;2023-07-29T10:07:12;100627.47;;;22.04;86.24
74065;BME280;62421;51.412;5.432;2023-07-29T10:09:39;100625.97;;;22.17;85.24
74065;BME280;62421;51.412;5.432;2023-07-29T10:12:06;100612.41;;;22.38;83.42
74065;BME280;62421;51.412;5.432;2023-07-29T10:14:32;100618.50;;;22.70;83.94
74065;BME280;62421;51.412;5.432;2023-07-29T10:16:57;100624.38;;;23.03;82.05
74065;BME280;62421;51.412;5.432;2023-07-29T10:19:24;100622.03;;;23.22;80.65
74065;BME280;62421;51.412;5.432;2023-07-29T10:21:51;100621.63;;;23.25;80.38
74065;BME280;62421;51.412;5.432;2023-07-29T10:24:19;100617.47;;;23.29;81.68
74065;BME280;62421;51.412;5.432;2023-07-29T10:26:49;100611.91;;;23.44;81.42
74065;BME280;62421;51.412;5.432;2023-07-29T10:29:19;100620.69;;;23.61;81.12
74065;BME280;62421;51.412;5.432;2023-07-29T10:31:46;100615.81;;;23.56;78.15
74065;BME280;62421;51.412;5.432;2023-07-29T10:34:13;100607.91;;;23.46;78.19
74065;BME280;62421;51.412;5.432;2023-07-29T10:36:39;100612.09;;;23.42;78.15
74065;BME280;62421;51.412;5.432;2023-07-29T10:39:07;100603.31;;;23.47;78.96
74065;BME280;62421;51.412;5.432;2023-07-29T10:47:28;100598.28;;;23.79;79.90
74065;BME280;62421;51.412;5.432;2023-07-29T10:49:58;100593.38;;;23.74;78.57
74065;BME280;62421;51.412;5.432;2023-07-29T10:55:03;100594.91;;;24.05;76.37
74065;BME280;62421;51.412;5.432;2023-07-29T10:57:37;100588.59;;;24.18;78.23
74065;BME280;62421;51.412;5.432;2023-07-29T11:00:05;100593.25;;;24.17;76.34
74065;BME280;62421;51.412;5.432;2023-07-29T11:02:36;100590.03;;;24.07;75.67
74065;BME280;62421;51.412;5.432;2023-07-29T11:05:17;100594.78;;;23.91;76.32
74065;BME280;62421;51.412;5.432;2023-07-29T11:07:49;100593.97;;;23.69;74.97
74065;BME280;62421;51.412;5.432;2023-07-29T11:10:15;100589.06;;;23.58;76.70
74065;BME280;62421;51.412;5.432;2023-07-29T11:12:47;100591.75;;;23.51;79.32
74065;BME280;62421;51.412;5.432;2023-07-29T11:15:28;100583.00;;;23.41;84.00
74065;BME280;62421;51.412;5.432;2023-07-29T11:17:58;100590.19;;;23.21;87.38
74065;BME280;62421;51.412;5.432;2023-07-29T11:20:25;100593.13;;;22.98;87.18
74065;BME280;62421;51.412;5.432;2023-07-29T11:22:53;100590.56;;;22.75;90.74
74065;BME280;62421;51.412;5.432;2023-07-29T11:25:19;100602.81;;;22.42;94.52
74065;BME280;62421;51.412;5.432;2023-07-29T11:27:45;100607.22;;;21.84;100.00
74065;BME280;62421;51.412;5.432;2023-07-29T11:30:13;100599.91;;;21.23;100.00
74065;BME280;62421;51.412;5.432;2023-07-29T11:32:40;100596.06;;;20.55;100.00
74065;BME280;62421;51.412;5.432;2023-07-29T11:35:08;100600.22;;;20.35;100.00
74065;BME280;62421;51.412;5.432;2023-07-29T11:37:35;100603.25;;;20.48;100.00
74065;BME280;62421;51.412;5.432;2023-07-29T11:40:01;100587.19;;;20.61;100.00
74065;BME280;62421;51.412;5.432;2023-07-29T11:42:27;100593.75;;;20.75;100.00
74065;BME280;62421;51.412;5.432;2023-07-29T11:44:56;100601.66;;;20.93;100.00
74065;BME280;62421;51.412;5.432;2023-07-29T11:47:21;100582.47;;;21.01;100.00
74065;BME280;62421;51.412;5.432;2023-07-29T11:49:47;100577.09;;;20.93;100.00
74065;BME280;62421;51.412;5.432;2023-07-29T11:52:12;100592.69;;;20.84;100.00
74065;BME280;62421;51.412;5.432;2023-07-29T11:54:38;100579.03;;;20.84;100.00
74065;BME280;62421;51.412;5.432;2023-07-29T11:57:08;100578.53;;;20.81;100.00
74065;BME280;62421;51.412;5.432;2023-07-29T11:59:37;100595.63;;;20.75;100.00
74065;BME280;62421;51.412;5.432;2023-07-29T12:02:09;100585.16;;;20.55;100.00
74065;BME280;62421;51.412;5.432;2023-07-29T12:04:36;100592.38;;;20.40;100.00
74065;BME280;62421;51.412;5.432;2023-07-29T12:07:02;100593.66;;;20.21;100.00
74065;BME280;62421;51.412;5.432;2023-07-29T12:09:28;100592.03;;;20.03;100.00
74065;BME280;62421;51.412;5.432;2023-07-29T12:11:54;100591.59;;;19.83;100.00
74065;BME280;62421;51.412;5.432;2023-07-29T12:14:19;100597.56;;;19.71;100.00
74065;BME280;62421;51.412;5.432;2023-07-29T12:16:47;100597.53;;;19.62;100.00
74065;BME280;62421;51.412;5.432;2023-07-29T12:19:14;100606.75;;;19.53;100.00
74065;BME280;62421;51.412;5.432;2023-07-29T12:21:44;100608.28;;;19.39;100.00
74065;BME280;62421;51.412;5.432;2023-07-29T12:24:12;100610.31;;;19.29;100.00
74065;BME280;62421;51.412;5.432;2023-07-29T12:26:37;100607.41;;;19.22;100.00
74065;BME280;62421;51.412;5.432;2023-07-29T12:29:18;100618.13;;;19.16;100.00
74065;BME280;62421;51.412;5.432;2023-07-29T12:31:47;100661.66;;;19.08;100.00
74065;BME280;62421;51.412;5.432;2023-07-29T12:34:20;100717.25;;;18.97;100.00
74065;BME280;62421;51.412;5.432;2023-07-29T12:36:50;100705.53;;;18.62;100.00
74065;BME280;62421;51.412;5.432;2023-07-29T12:39:20;100695.13;;;18.23;100.00
74065;BME280;62421;51.412;5.432;2023-07-29T12:41:46;100659.94;;;17.87;100.00
74065;BME280;62421;51.412;5.432;2023-07-29T12:44:12;100665.72;;;17.66;100.00
74065;BME280;62421;51.412;5.432;2023-07-29T12:46:38;100669.56;;;17.81;100.00
74065;BME280;62421;51.412;5.432;2023-07-29T12:49:03;100666.44;;;17.94;100.00
74065;BME280;62421;51.412;5.432;2023-07-29T12:51:29;100658.06;;;18.14;100.00
74065;BME280;62421;51.412;5.432;2023-07-29T12:53:54;100660.69;;;18.32;100.00
74065;BME280;62421;51.412;5.432;2023-07-29T12:56:20;100653.13;;;18.52;100.00
74065;BME280;62421;51.412;5.432;2023-07-29T12:58:45;100659.00;;;18.73;100.00